Terminal Aerodrome Forecast
Issued by NWS

Home | Current Version | Previous Version | Text Only | Print | Product List | Glossary On
Versions: 1 2 3 4 5 6 7 8 9 10 11 12 13 14 15 16 17 18 19
252
FTUS43 KLSX 262340
TAFSUS
TAF
KSUS 262340Z 2700/2724 10005KT P6SM OVC120
     FM270800 10007KT P6SM VCTS OVC040CB
      TEMPO 2710/2713 3SM TSRA OVC025CB
     FM271300 11010KT 6SM -SHRA OVC020
     FM271700 14012KT P6SM -SHRA OVC035
     FM271900 17013KT P6SM BKN045=

USA.gov is the U.S. government's official web portal to all federal, state and local government web resources and services.